createdAt,value
2022-07-29T00:00:00.904Z,21.85
2022-07-29T00:02:29.567Z,21.83
2022-07-29T00:04:58.013Z,21.81
2022-07-29T00:07:26.765Z,21.80
2022-07-29T00:09:55.340Z,21.79
2022-07-29T00:12:26.760Z,21.79
2022-07-29T00:14:56.462Z,21.79
2022-07-29T00:17:25.883Z,21.78
2022-07-29T00:19:54.709Z,21.77
2022-07-29T00:22:23.778Z,21.75
2022-07-29T00:24:52.391Z,21.73
2022-07-29T00:27:20.872Z,21.69
2022-07-29T00:29:49.355Z,21.67
2022-07-29T00:32:18.040Z,21.65
2022-07-29T00:35:05.313Z,21.63
2022-07-29T00:37:34.006Z,21.62
2022-07-29T00:40:02.539Z,21.60
2022-07-29T00:42:31.222Z,21.58
2022-07-29T00:44:59.602Z,21.56
2022-07-29T00:47:28.289Z,21.53
2022-07-29T00:49:56.875Z,21.50
2022-07-29T00:52:25.987Z,21.48
2022-07-29T00:54:54.522Z,21.46
2022-07-29T00:57:23.194Z,21.45
2022-07-29T00:59:51.728Z,21.44
2022-07-29T01:02:20.278Z,21.43
2022-07-29T01:04:49.757Z,21.43
2022-07-29T01:07:19.625Z,21.44
2022-07-29T01:09:48.549Z,21.44
2022-07-29T01:12:21.408Z,21.45
2022-07-29T01:14:51.163Z,21.45
2022-07-29T01:17:26.709Z,21.45
2022-07-29T01:20:04.726Z,21.45
2022-07-29T01:22:35.978Z,21.44
2022-07-29T01:25:29.695Z,21.41
2022-07-29T01:28:23.780Z,21.39
2022-07-29T01:30:55.742Z,21.37
2022-07-29T01:33:47.267Z,21.35
2022-07-29T01:36:41.866Z,21.34
2022-07-29T01:39:15.670Z,21.34
2022-07-29T01:41:52.343Z,21.34
2022-07-29T01:44:28.272Z,21.36
2022-07-29T01:47:03.264Z,21.36
2022-07-29T01:49:38.026Z,21.37
2022-07-29T01:52:15.764Z,21.37
2022-07-29T01:54:56.958Z,21.37
2022-07-29T01:57:29.481Z,21.36
2022-07-29T02:00:00.272Z,21.34
2022-07-29T02:02:31.716Z,21.32
2022-07-29T02:05:01.666Z,21.29
2022-07-29T02:07:33.146Z,21.26
2022-07-29T02:10:03.114Z,21.22
2022-07-29T02:12:33.321Z,21.18
2022-07-29T02:15:04.630Z,21.13
2022-07-29T02:17:41.042Z,21.08
2022-07-29T02:20:10.958Z,21.07
2022-07-29T02:22:41.835Z,21.04
2022-07-29T02:25:14.022Z,21.01
2022-07-29T02:27:43.898Z,20.97
2022-07-29T02:30:14.566Z,20.94
2022-07-29T02:32:44.683Z,20.90
2022-07-29T02:35:17.528Z,20.86
2022-07-29T02:38:07.298Z,20.81
2022-07-29T02:40:39.820Z,20.78
2022-07-29T02:43:10.362Z,20.75
2022-07-29T02:45:39.764Z,20.70
2022-07-29T02:48:14.350Z,20.66
2022-07-29T02:50:50.139Z,20.61
2022-07-29T02:53:26.772Z,20.57
2022-07-29T02:56:03.069Z,20.53
2022-07-29T02:58:46.874Z,20.51
2022-07-29T03:01:24.631Z,20.50
2022-07-29T03:03:55.438Z,20.49
2022-07-29T03:06:38.578Z,20.48
2022-07-29T03:09:13.197Z,20.48
2022-07-29T03:11:50.004Z,20.48
2022-07-29T03:14:21.366Z,20.49
2022-07-29T03:16:52.236Z,20.51
2022-07-29T03:19:21.650Z,20.51
2022-07-29T03:21:50.625Z,20.56
2022-07-29T03:24:30.965Z,20.58
2022-07-29T03:27:00.239Z,20.62
2022-07-29T03:29:33.701Z,20.64
2022-07-29T03:32:08.169Z,20.66
2022-07-29T03:34:39.220Z,20.68
2022-07-29T03:37:08.450Z,20.70
2022-07-29T03:39:42.159Z,20.72
2022-07-29T03:42:14.447Z,20.71
2022-07-29T03:44:45.488Z,20.72
2022-07-29T03:47:16.415Z,20.73
2022-07-29T03:49:48.938Z,20.74
2022-07-29T03:52:18.394Z,20.76
2022-07-29T03:54:47.030Z,20.80
2022-07-29T03:57:16.895Z,20.86
2022-07-29T03:59:46.251Z,20.93
2022-07-29T04:02:18.849Z,21.00
2022-07-29T04:04:50.945Z,21.08
2022-07-29T04:07:20.044Z,21.16
2022-07-29T04:09:48.526Z,21.24
2022-07-29T04:12:17.208Z,21.30
2022-07-29T04:14:45.589Z,21.33
2022-07-29T04:17:13.968Z,21.38
2022-07-29T04:19:42.860Z,21.42
2022-07-29T04:22:11.502Z,21.44
2022-07-29T04:24:44.015Z,21.45
2022-07-29T04:27:13.330Z,21.47
2022-07-29T04:29:56.179Z,21.49
2022-07-29T04:32:27.862Z,21.52
2022-07-29T04:34:56.386Z,21.56
2022-07-29T04:37:24.947Z,21.62
2022-07-29T04:39:53.556Z,21.69
2022-07-29T04:42:25.238Z,21.86
2022-07-29T04:44:56.769Z,22.05
2022-07-29T04:47:25.148Z,22.25
2022-07-29T04:49:53.630Z,22.45
2022-07-29T04:52:22.727Z,22.67
2022-07-29T04:54:51.254Z,22.87
2022-07-29T04:57:19.898Z,23.07
2022-07-29T04:59:48.584Z,23.30
2022-07-29T05:02:17.311Z,23.47
2022-07-29T05:04:46.014Z,23.65
2022-07-29T05:07:14.559Z,23.80
2022-07-29T05:09:42.982Z,23.94
2022-07-29T05:12:12.228Z,24.11
2022-07-29T05:14:40.824Z,24.28
2022-07-29T05:17:09.295Z,24.49
2022-07-29T05:19:39.743Z,24.68
2022-07-29T05:22:08.925Z,24.85
2022-07-29T05:24:37.232Z,25.05
2022-07-29T05:27:05.888Z,25.24
2022-07-29T05:29:43.389Z,25.43
2022-07-29T05:32:14.628Z,25.65
2022-07-29T05:34:51.137Z,25.84
2022-07-29T05:37:21.549Z,26.03
2022-07-29T05:39:56.942Z,26.20
2022-07-29T05:42:26.683Z,26.39
2022-07-29T05:44:55.355Z,26.58
2022-07-29T05:47:24.799Z,26.80
2022-07-29T05:49:53.333Z,26.99
2022-07-29T05:52:22.731Z,27.17
2022-07-29T05:54:51.353Z,27.35
2022-07-29T05:57:22.347Z,27.54
2022-07-29T05:59:52.079Z,27.72
2022-07-29T06:02:20.791Z,27.94
2022-07-29T06:04:49.931Z,28.12
2022-07-29T06:07:18.582Z,28.28
2022-07-29T06:09:47.167Z,28.49
2022-07-29T06:12:15.849Z,28.70
2022-07-29T06:14:44.391Z,28.93
2022-07-29T06:17:13.123Z,29.13
2022-07-29T06:19:41.810Z,29.30
2022-07-29T06:22:10.243Z,29.45
2022-07-29T06:24:42.767Z,29.58
2022-07-29T06:27:12.644Z,29.68
2022-07-29T06:29:41.065Z,29.82
2022-07-29T06:32:10.330Z,29.92
2022-07-29T06:34:39.052Z,30.06
2022-07-29T06:37:15.629Z,30.24
2022-07-29T06:39:44.620Z,30.44
2022-07-29T06:42:13.309Z,30.62
2022-07-29T06:44:44.098Z,30.85
2022-07-29T06:47:12.730Z,31.01
2022-07-29T06:49:41.214Z,31.12
2022-07-29T06:52:09.901Z,31.21
2022-07-29T06:54:39.861Z,31.33
2022-07-29T06:57:08.402Z,31.40
2022-07-29T06:59:36.891Z,31.52
2022-07-29T07:02:05.831Z,31.59
2022-07-29T07:04:34.875Z,31.72
2022-07-29T07:07:03.360Z,31.78
2022-07-29T07:09:40.608Z,31.90
2022-07-29T07:12:10.152Z,32.08
2022-07-29T07:14:39.259Z,32.28
2022-07-29T07:17:08.467Z,32.41
2022-07-29T07:19:37.036Z,32.46
2022-07-29T07:22:05.928Z,32.55
2022-07-29T07:24:34.614Z,32.71
2022-07-29T07:27:03.304Z,32.83
2022-07-29T07:29:31.887Z,32.93
2022-07-29T07:32:01.339Z,33.10
2022-07-29T07:34:31.415Z,33.30
2022-07-29T07:36:59.963Z,33.48
2022-07-29T07:39:28.789Z,33.61
2022-07-29T07:41:57.374Z,33.73
2022-07-29T07:44:26.585Z,33.80
2022-07-29T07:46:55.159Z,33.86
2022-07-29T07:49:23.644Z,33.89
2022-07-29T07:51:53.816Z,33.89
2022-07-29T07:54:22.319Z,33.93
2022-07-29T07:56:53.160Z,33.98
2022-07-29T07:59:22.130Z,34.07
2022-07-29T08:01:56.111Z,34.10
2022-07-29T08:04:28.634Z,34.12
2022-07-29T08:06:59.071Z,34.29
2022-07-29T08:09:30.522Z,34.35
2022-07-29T08:12:00.433Z,34.41
2022-07-29T08:14:29.970Z,34.58
2022-07-29T08:16:59.013Z,34.68
2022-07-29T08:19:27.551Z,34.92
2022-07-29T08:21:56.137Z,35.14
2022-07-29T08:24:43.531Z,35.31
2022-07-29T08:27:40.827Z,35.45
2022-07-29T08:30:01.218Z,35.50
2022-07-29T08:32:52.626Z,35.60
2022-07-29T08:35:22.564Z,35.77
2022-07-29T08:37:51.912Z,35.91
2022-07-29T08:40:31.838Z,36.01
2022-07-29T08:43:07.665Z,36.09
2022-07-29T08:45:54.487Z,36.20
2022-07-29T08:48:25.917Z,36.28
2022-07-29T08:50:57.227Z,36.22
2022-07-29T08:53:28.209Z,36.26
2022-07-29T08:55:57.674Z,36.42
2022-07-29T08:58:28.253Z,36.53
2022-07-29T09:00:57.972Z,36.43
2022-07-29T09:03:32.854Z,36.48
2022-07-29T09:06:02.815Z,36.73
2022-07-29T09:08:33.655Z,37.03
2022-07-29T09:11:05.410Z,37.31
2022-07-29T09:13:35.130Z,37.50
2022-07-29T09:16:09.138Z,37.41
2022-07-29T09:18:42.803Z,37.43
2022-07-29T09:21:32.727Z,37.52
2022-07-29T09:24:08.236Z,37.73
2022-07-29T09:26:40.344Z,38.02
2022-07-29T09:29:15.072Z,38.25
2022-07-29T09:31:46.225Z,38.43
2022-07-29T09:34:24.776Z,38.44
2022-07-29T09:36:55.425Z,38.59
2022-07-29T09:39:47.716Z,38.68
2022-07-29T09:42:29.518Z,38.56
2022-07-29T09:44:58.105Z,38.49
2022-07-29T09:47:43.010Z,38.36
2022-07-29T09:50:12.075Z,38.29
2022-07-29T09:52:58.763Z,38.51
2022-07-29T09:55:27.455Z,38.61
2022-07-29T09:58:16.314Z,38.63
2022-07-29T10:00:46.586Z,38.61
2022-07-29T10:03:16.984Z,38.58
2022-07-29T10:05:47.396Z,38.69
2022-07-29T10:08:26.012Z,38.83
2022-07-29T10:11:14.770Z,39.03
2022-07-29T10:13:45.213Z,39.08
2022-07-29T10:16:15.850Z,38.78
2022-07-29T10:18:45.469Z,38.04
2022-07-29T10:21:34.489Z,37.37
2022-07-29T10:24:03.195Z,37.33
2022-07-29T10:26:32.090Z,37.04
2022-07-29T10:29:01.611Z,36.68
2022-07-29T10:31:45.366Z,36.92
2022-07-29T10:34:28.913Z,37.15
2022-07-29T10:37:55.103Z,37.41
2022-07-29T10:41:11.514Z,37.59
2022-07-29T10:46:41.299Z,37.30
2022-07-29T10:49:15.629Z,37.37
2022-07-29T10:52:07.192Z,37.51
2022-07-29T10:54:39.707Z,37.39
2022-07-29T10:57:17.409Z,37.16
2022-07-29T10:59:52.890Z,37.10
2022-07-29T11:02:41.975Z,37.36
2022-07-29T11:05:20.326Z,37.65
2022-07-29T11:11:22.120Z,38.64
2022-07-29T11:13:53.254Z,39.03
2022-07-29T11:16:25.016Z,39.37
2022-07-29T11:19:16.099Z,39.71
2022-07-29T11:24:50.043Z,40.08
2022-07-29T11:27:23.485Z,40.30
2022-07-29T11:30:04.862Z,40.57
2022-07-29T11:32:40.369Z,40.67
2022-07-29T11:35:19.326Z,40.48
2022-07-29T11:38:27.985Z,40.04
2022-07-29T11:41:22.816Z,39.71
2022-07-29T11:43:59.070Z,39.99
2022-07-29T11:46:47.915Z,40.39
2022-07-29T11:49:32.236Z,40.57
2022-07-29T11:52:05.670Z,40.47
2022-07-29T11:54:38.907Z,40.48
2022-07-29T11:57:36.630Z,40.69
2022-07-29T12:00:12.715Z,40.86
2022-07-29T12:02:48.764Z,41.05
2022-07-29T12:05:35.863Z,41.22
2022-07-29T12:08:15.039Z,41.36
2022-07-29T12:10:44.742Z,41.61
2022-07-29T12:13:14.449Z,41.64
2022-07-29T12:15:45.960Z,41.38
2022-07-29T12:18:18.217Z,41.22
2022-07-29T12:20:48.608Z,41.35
2022-07-29T12:23:18.998Z,41.52
2022-07-29T12:25:49.655Z,41.54
2022-07-29T12:28:26.836Z,41.65
2022-07-29T12:30:56.315Z,41.86
2022-07-29T12:33:30.811Z,41.93
2022-07-29T12:36:17.135Z,42.11
2022-07-29T12:38:47.413Z,41.83
2022-07-29T12:41:15.897Z,41.26
2022-07-29T12:43:55.692Z,40.82
2022-07-29T12:46:24.270Z,40.64
2022-07-29T12:48:57.835Z,40.60
2022-07-29T12:51:32.476Z,40.77
2022-07-29T12:54:14.503Z,40.91
2022-07-29T12:56:45.629Z,41.05
2022-07-29T12:59:15.655Z,41.27
2022-07-29T13:01:45.470Z,41.44
2022-07-29T13:04:34.753Z,41.71
2022-07-29T13:07:09.093Z,41.70
2022-07-29T13:09:40.201Z,41.67
2022-07-29T13:12:11.320Z,41.75
2022-07-29T13:14:44.823Z,41.75
2022-07-29T13:17:14.699Z,41.80
2022-07-29T13:19:54.639Z,41.93
2022-07-29T13:22:26.747Z,41.95
2022-07-29T13:24:58.507Z,41.78
2022-07-29T13:27:31.173Z,40.95
2022-07-29T13:30:01.704Z,40.52
2022-07-29T13:32:32.044Z,40.41
2022-07-29T13:35:06.083Z,40.31
2022-07-29T13:37:39.303Z,40.15
2022-07-29T13:40:12.956Z,39.98
2022-07-29T13:42:42.181Z,39.82
2022-07-29T13:45:12.118Z,39.54
2022-07-29T13:47:43.582Z,39.46
2022-07-29T13:50:15.950Z,39.86
2022-07-29T13:52:44.689Z,40.31
2022-07-29T13:55:13.375Z,40.62
2022-07-29T13:57:41.959Z,40.93
2022-07-29T14:00:11.822Z,41.16
2022-07-29T14:02:40.775Z,41.15
2022-07-29T14:05:11.321Z,41.23
2022-07-29T14:07:40.513Z,41.40
2022-07-29T14:10:09.586Z,41.33
2022-07-29T14:12:39.137Z,41.26
2022-07-29T14:15:08.029Z,41.45
2022-07-29T14:17:36.432Z,41.48
2022-07-29T14:20:06.117Z,41.30
2022-07-29T14:22:37.849Z,41.15
2022-07-29T14:25:15.035Z,40.87
2022-07-29T14:27:45.106Z,40.75
2022-07-29T14:30:13.954Z,40.83
2022-07-29T14:32:42.633Z,41.00
2022-07-29T14:35:11.232Z,41.23
2022-07-29T14:37:40.883Z,41.36
2022-07-29T14:40:10.782Z,41.36
2022-07-29T14:42:39.646Z,41.23
2022-07-29T14:45:10.766Z,40.93
2022-07-29T14:47:40.191Z,40.78
2022-07-29T14:50:10.103Z,40.76
2022-07-29T14:52:39.505Z,40.91
2022-07-29T14:55:19.716Z,41.07
2022-07-29T14:57:51.092Z,41.19
2022-07-29T15:00:19.703Z,41.23
2022-07-29T15:03:04.198Z,41.25
2022-07-29T15:05:33.059Z,41.28
2022-07-29T15:08:01.733Z,41.33
2022-07-29T15:10:30.831Z,41.50
2022-07-29T15:13:03.117Z,41.65
2022-07-29T15:16:31.452Z,41.65
2022-07-29T15:20:04.284Z,41.64
2022-07-29T15:23:32.670Z,41.47
2022-07-29T15:26:20.418Z,41.29
2022-07-29T15:28:49.076Z,41.26
2022-07-29T15:32:17.414Z,41.35
2022-07-29T15:35:09.003Z,41.37
2022-07-29T15:37:49.004Z,41.45
2022-07-29T15:40:18.051Z,41.49
2022-07-29T15:42:46.620Z,41.45
2022-07-29T15:45:15.122Z,41.38
2022-07-29T15:47:43.814Z,41.50
2022-07-29T15:50:17.159Z,41.65
2022-07-29T15:52:45.997Z,41.77
2022-07-29T15:55:16.017Z,41.78
2022-07-29T15:57:44.601Z,41.75
2022-07-29T16:00:14.207Z,41.65
2022-07-29T16:02:43.011Z,41.55
2022-07-29T16:05:11.480Z,41.44
2022-07-29T16:07:39.977Z,41.32
2022-07-29T16:10:09.267Z,41.12
2022-07-29T16:12:37.648Z,40.87
2022-07-29T16:15:09.957Z,40.59
2022-07-29T16:17:39.638Z,40.28
2022-07-29T16:20:08.714Z,39.95
2022-07-29T16:22:37.162Z,39.75
2022-07-29T16:25:06.410Z,39.39
2022-07-29T16:27:37.907Z,39.11
2022-07-29T16:30:11.157Z,38.87
2022-07-29T16:32:40.559Z,38.65
2022-07-29T16:35:10.111Z,38.40
2022-07-29T16:37:39.575Z,38.16
2022-07-29T16:40:11.698Z,37.98
2022-07-29T16:42:48.167Z,37.81
2022-07-29T16:45:17.472Z,37.59
2022-07-29T16:47:49.038Z,37.36
2022-07-29T16:50:18.577Z,37.17
2022-07-29T16:52:47.059Z,37.01
2022-07-29T16:55:15.748Z,36.77
2022-07-29T16:57:44.335Z,36.45
2022-07-29T17:00:13.696Z,36.05
2022-07-29T17:02:42.833Z,35.64
2022-07-29T17:05:12.502Z,35.24
2022-07-29T17:07:41.211Z,34.83
2022-07-29T17:10:10.645Z,34.44
2022-07-29T17:12:41.270Z,34.04
2022-07-29T17:15:10.862Z,33.70
2022-07-29T17:17:54.813Z,33.37
2022-07-29T17:20:26.801Z,33.01
2022-07-29T17:22:56.411Z,32.67
2022-07-29T17:25:25.085Z,32.37
2022-07-29T17:27:57.539Z,32.11
2022-07-29T17:30:29.940Z,31.83
2022-07-29T17:32:58.521Z,31.59
2022-07-29T17:35:46.206Z,31.38
2022-07-29T17:38:14.944Z,31.17
2022-07-29T17:40:43.735Z,30.99
2022-07-29T17:43:12.336Z,30.83
2022-07-29T17:45:49.362Z,30.69
2022-07-29T17:48:20.451Z,30.52
2022-07-29T17:50:49.440Z,30.38
2022-07-29T17:53:18.248Z,30.24
2022-07-29T17:55:48.845Z,30.09
2022-07-29T17:58:17.553Z,29.96
2022-07-29T18:00:46.111Z,29.85
2022-07-29T18:03:15.970Z,29.72
2022-07-29T18:05:44.745Z,29.59
2022-07-29T18:08:13.500Z,29.47
2022-07-29T18:10:42.218Z,29.35
2022-07-29T18:13:14.488Z,29.23
2022-07-29T18:15:45.277Z,29.11
2022-07-29T18:18:14.729Z,28.98
2022-07-29T18:21:51.952Z,28.85
2022-07-29T18:24:42.016Z,28.66
2022-07-29T18:27:10.521Z,28.53
2022-07-29T18:29:39.238Z,28.42
2022-07-29T18:32:08.076Z,28.31
2022-07-29T18:34:36.661Z,28.20
2022-07-29T18:37:05.475Z,28.10
2022-07-29T18:39:34.107Z,27.99
2022-07-29T18:42:02.654Z,27.89
2022-07-29T18:44:31.054Z,27.79
2022-07-29T18:47:00.534Z,27.68
2022-07-29T18:49:29.392Z,27.58
2022-07-29T18:51:58.292Z,27.48
2022-07-29T18:55:26.541Z,27.39
2022-07-29T18:58:54.863Z,27.27
2022-07-29T19:02:23.257Z,27.18
2022-07-29T19:05:51.637Z,27.07
2022-07-29T19:09:19.750Z,26.95
2022-07-29T19:39:15.579Z,26.36
2022-07-29T19:41:44.483Z,26.30
2022-07-29T19:44:12.933Z,26.23
2022-07-29T19:46:45.082Z,26.13
2022-07-29T19:49:14.041Z,26.05
2022-07-29T19:51:42.714Z,25.97
2022-07-29T19:54:11.529Z,25.88
2022-07-29T19:56:42.176Z,25.80
2022-07-29T19:59:10.954Z,25.70
2022-07-29T20:01:41.339Z,25.59
2022-07-29T20:04:10.045Z,25.48
2022-07-29T20:06:38.585Z,25.34
2022-07-29T20:09:07.418Z,25.22
2022-07-29T20:11:36.890Z,25.13
2022-07-29T20:14:05.832Z,25.01
2022-07-29T20:16:34.509Z,24.92
2022-07-29T20:19:02.990Z,24.81
2022-07-29T20:21:55.481Z,24.71
2022-07-29T20:24:24.222Z,24.62
2022-07-29T20:26:53.010Z,24.55
2022-07-29T20:29:21.597Z,24.47
2022-07-29T20:31:52.915Z,24.38
2022-07-29T20:34:25.774Z,24.30
2022-07-29T20:36:54.374Z,24.23
2022-07-29T20:39:23.673Z,24.16
2022-07-29T20:41:52.237Z,24.09
2022-07-29T20:44:21.142Z,24.03
2022-07-29T20:46:49.938Z,23.99
2022-07-29T20:49:18.600Z,23.93
2022-07-29T20:51:47.275Z,23.88
2022-07-29T20:54:15.739Z,23.83
2022-07-29T20:56:44.312Z,23.80
2022-07-29T20:59:13.376Z,23.76
2022-07-29T21:01:41.898Z,23.73
2022-07-29T21:04:10.571Z,23.69
2022-07-29T21:06:39.585Z,23.65
2022-07-29T21:09:08.180Z,23.64
2022-07-29T21:11:43.228Z,23.63
2022-07-29T21:14:28.277Z,23.61
2022-07-29T21:16:57.481Z,23.59
2022-07-29T21:19:26.576Z,23.57
2022-07-29T21:21:55.059Z,23.54
2022-07-29T21:24:23.743Z,23.52
2022-07-29T21:27:18.203Z,23.51
2022-07-29T21:29:41.497Z,23.48
2022-07-29T21:32:10.013Z,23.45
2022-07-29T21:34:38.674Z,23.43
2022-07-29T21:37:09.401Z,23.41
2022-07-29T21:39:38.403Z,23.39
2022-07-29T21:42:08.909Z,23.35
2022-07-29T21:44:41.303Z,23.33
2022-07-29T21:47:11.013Z,23.32
2022-07-29T21:49:39.703Z,23.30
2022-07-29T21:52:08.979Z,23.27
2022-07-29T21:54:37.585Z,23.24
2022-07-29T21:57:07.379Z,23.21
2022-07-29T21:59:35.985Z,23.18
2022-07-29T22:02:05.190Z,23.17
2022-07-29T22:04:36.055Z,23.14
2022-07-29T22:07:05.345Z,23.13
2022-07-29T22:09:34.219Z,23.10
2022-07-29T22:12:03.007Z,23.08
2022-07-29T22:14:31.594Z,23.06
2022-07-29T22:17:00.677Z,23.02
2022-07-29T22:19:29.969Z,22.98
2022-07-29T22:21:59.086Z,22.94
2022-07-29T22:24:27.568Z,22.91
2022-07-29T22:26:56.363Z,22.88
2022-07-29T22:29:27.196Z,22.85
2022-07-29T22:31:55.882Z,22.80
2022-07-29T22:34:24.803Z,22.76
2022-07-29T22:37:03.690Z,22.72
2022-07-29T22:39:32.698Z,22.69
2022-07-29T22:42:01.655Z,22.66
2022-07-29T22:44:30.482Z,22.62
2022-07-29T22:46:59.101Z,22.59
2022-07-29T22:49:27.802Z,22.56
2022-07-29T22:51:56.685Z,22.53
2022-07-29T22:54:25.184Z,22.50
2022-07-29T22:56:53.917Z,22.47
2022-07-29T22:59:22.542Z,22.44
2022-07-29T23:01:51.021Z,22.43
2022-07-29T23:04:24.102Z,22.41
2022-07-29T23:06:52.972Z,22.38
2022-07-29T23:09:21.504Z,22.36
2022-07-29T23:11:50.097Z,22.33
2022-07-29T23:14:18.783Z,22.29
2022-07-29T23:16:47.988Z,22.26
2022-07-29T23:19:16.630Z,22.22
2022-07-29T23:21:45.400Z,22.19
2022-07-29T23:24:14.086Z,22.16
2022-07-29T23:26:42.625Z,22.14
2022-07-29T23:29:11.241Z,22.10
2022-07-29T23:31:41.728Z,22.07
2022-07-29T23:34:11.803Z,22.05
2022-07-29T23:36:42.546Z,22.02
2022-07-29T23:39:12.763Z,21.99
2022-07-29T23:41:41.858Z,21.96
2022-07-29T23:44:10.651Z,21.94
2022-07-29T23:46:39.181Z,21.92
2022-07-29T23:49:07.840Z,21.90
2022-07-29T23:51:36.506Z,21.89
2022-07-29T23:54:05.091Z,21.86
2022-07-29T23:56:33.972Z,21.85
2022-07-29T23:59:04.020Z,21.82
